sensor_id;sensor_type;location;lat;lon;timestamp;P1;durP1;ratioP1;P2;durP2;ratioP2
15132;SDS011;7667;51.232;17.110;2023-04-24T00:00:43;9.77;;;8.77;;
15132;SDS011;7667;51.232;17.110;2023-04-24T00:03:11;10.13;;;8.63;;
15132;SDS011;7667;51.232;17.110;2023-04-24T00:05:39;9.20;;;8.30;;
15132;SDS011;7667;51.232;17.110;2023-04-24T00:08:07;9.40;;;8.00;;
15132;SDS011;7667;51.232;17.110;2023-04-24T00:10:35;9.43;;;8.43;;
15132;SDS011;7667;51.232;17.110;2023-04-24T00:13:03;9.27;;;8.37;;
15132;SDS011;7667;51.232;17.110;2023-04-24T00:15:31;10.57;;;8.90;;
15132;SDS011;7667;51.232;17.110;2023-04-24T00:17:58;9.93;;;8.50;;
15132;SDS011;7667;51.232;17.110;2023-04-24T00:20:28;13.90;;;12.40;;
15132;SDS011;7667;51.232;17.110;2023-04-24T00:22:56;14.97;;;13.13;;
15132;SDS011;7667;51.232;17.110;2023-04-24T00:25:23;15.33;;;13.73;;
15132;SDS011;7667;51.232;17.110;2023-04-24T00:27:51;16.73;;;14.60;;
15132;SDS011;7667;51.232;17.110;2023-04-24T00:30:18;16.07;;;14.37;;
15132;SDS011;7667;51.232;17.110;2023-04-24T00:32:46;16.13;;;14.43;;
15132;SDS011;7667;51.232;17.110;2023-04-24T00:35:14;12.37;;;11.17;;
15132;SDS011;7667;51.232;17.110;2023-04-24T00:37:41;13.37;;;9.93;;
15132;SDS011;7667;51.232;17.110;2023-04-24T00:40:09;12.00;;;10.63;;
15132;SDS011;7667;51.232;17.110;2023-04-24T00:42:37;12.63;;;10.23;;
15132;SDS011;7667;51.232;17.110;2023-04-24T00:45:07;11.27;;;10.17;;
15132;SDS011;7667;51.232;17.110;2023-04-24T00:47:35;11.50;;;10.30;;
15132;SDS011;7667;51.232;17.110;2023-04-24T00:50:03;11.50;;;10.17;;
15132;SDS011;7667;51.232;17.110;2023-04-24T00:52:32;11.53;;;10.17;;
15132;SDS011;7667;51.232;17.110;2023-04-24T00:55:01;10.77;;;9.63;;
15132;SDS011;7667;51.232;17.110;2023-04-24T00:57:29;10.77;;;8.97;;
15132;SDS011;7667;51.232;17.110;2023-04-24T00:59:57;10.50;;;8.43;;
15132;SDS011;7667;51.232;17.110;2023-04-24T01:02:25;9.27;;;7.90;;
15132;SDS011;7667;51.232;17.110;2023-04-24T01:04:53;10.13;;;8.20;;
15132;SDS011;7667;51.232;17.110;2023-04-24T01:07:21;10.77;;;8.20;;
15132;SDS011;7667;51.232;17.110;2023-04-24T01:09:48;11.27;;;8.67;;
15132;SDS011;7667;51.232;17.110;2023-04-24T01:12:19;9.87;;;8.83;;
15132;SDS011;7667;51.232;17.110;2023-04-24T01:14:46;10.27;;;8.47;;
15132;SDS011;7667;51.232;17.110;2023-04-24T01:17:14;11.70;;;9.30;;
15132;SDS011;7667;51.232;17.110;2023-04-24T01:19:42;10.17;;;8.87;;
15132;SDS011;7667;51.232;17.110;2023-04-24T01:22:14;10.40;;;9.37;;
15132;SDS011;7667;51.232;17.110;2023-04-24T01:24:43;12.23;;;9.83;;
15132;SDS011;7667;51.232;17.110;2023-04-24T01:27:11;9.97;;;8.90;;
15132;SDS011;7667;51.232;17.110;2023-04-24T01:29:39;10.83;;;9.67;;
15132;SDS011;7667;51.232;17.110;2023-04-24T01:32:08;10.70;;;9.60;;
15132;SDS011;7667;51.232;17.110;2023-04-24T01:34:36;10.33;;;9.23;;
15132;SDS011;7667;51.232;17.110;2023-04-24T01:37:06;13.53;;;10.20;;
15132;SDS011;7667;51.232;17.110;2023-04-24T01:39:33;12.27;;;9.93;;
15132;SDS011;7667;51.232;17.110;2023-04-24T01:42:01;10.33;;;9.13;;
15132;SDS011;7667;51.232;17.110;2023-04-24T01:44:29;10.10;;;9.10;;
15132;SDS011;7667;51.232;17.110;2023-04-24T01:46:57;11.27;;;9.67;;
15132;SDS011;7667;51.232;17.110;2023-04-24T01:49:27;11.23;;;9.67;;
15132;SDS011;7667;51.232;17.110;2023-04-24T01:51:55;10.30;;;9.23;;
15132;SDS011;7667;51.232;17.110;2023-04-24T01:54:22;11.10;;;10.00;;
15132;SDS011;7667;51.232;17.110;2023-04-24T01:56:50;11.07;;;9.93;;
15132;SDS011;7667;51.232;17.110;2023-04-24T01:59:18;11.43;;;9.83;;
15132;SDS011;7667;51.232;17.110;2023-04-24T02:01:48;14.70;;;10.13;;
15132;SDS011;7667;51.232;17.110;2023-04-24T02:04:16;10.60;;;9.50;;
15132;SDS011;7667;51.232;17.110;2023-04-24T02:06:43;11.37;;;9.57;;
15132;SDS011;7667;51.232;17.110;2023-04-24T02:09:11;11.37;;;9.43;;
15132;SDS011;7667;51.232;17.110;2023-04-24T02:11:39;11.43;;;10.03;;
15132;SDS011;7667;51.232;17.110;2023-04-24T02:14:06;10.67;;;9.57;;
15132;SDS011;7667;51.232;17.110;2023-04-24T02:16:34;11.03;;;9.93;;
15132;SDS011;7667;51.232;17.110;2023-04-24T02:19:02;10.20;;;9.17;;
15132;SDS011;7667;51.232;17.110;2023-04-24T02:21:30;10.53;;;9.53;;
15132;SDS011;7667;51.232;17.110;2023-04-24T02:23:58;11.40;;;9.90;;
15132;SDS011;7667;51.232;17.110;2023-04-24T02:26:26;11.60;;;9.50;;
15132;SDS011;7667;51.232;17.110;2023-04-24T02:28:53;12.50;;;10.37;;
15132;SDS011;7667;51.232;17.110;2023-04-24T02:31:21;11.10;;;10.00;;
15132;SDS011;7667;51.232;17.110;2023-04-24T02:33:49;11.40;;;10.20;;
15132;SDS011;7667;51.232;17.110;2023-04-24T02:36:16;11.17;;;9.97;;
15132;SDS011;7667;51.232;17.110;2023-04-24T02:38:44;11.57;;;10.20;;
15132;SDS011;7667;51.232;17.110;2023-04-24T02:41:12;11.10;;;9.90;;
15132;SDS011;7667;51.232;17.110;2023-04-24T02:43:39;11.77;;;10.57;;
15132;SDS011;7667;51.232;17.110;2023-04-24T02:46:07;12.77;;;10.13;;
15132;SDS011;7667;51.232;17.110;2023-04-24T02:48:34;12.33;;;10.47;;
15132;SDS011;7667;51.232;17.110;2023-04-24T02:51:02;11.57;;;10.40;;
15132;SDS011;7667;51.232;17.110;2023-04-24T02:53:30;13.27;;;11.33;;
15132;SDS011;7667;51.232;17.110;2023-04-24T02:55:58;11.43;;;10.13;;
15132;SDS011;7667;51.232;17.110;2023-04-24T02:58:25;12.03;;;10.77;;
15132;SDS011;7667;51.232;17.110;2023-04-24T03:00:54;12.20;;;10.53;;
15132;SDS011;7667;51.232;17.110;2023-04-24T03:03:24;14.47;;;11.90;;
15132;SDS011;7667;51.232;17.110;2023-04-24T03:05:52;12.87;;;11.53;;
15132;SDS011;7667;51.232;17.110;2023-04-24T03:08:20;13.43;;;11.27;;
15132;SDS011;7667;51.232;17.110;2023-04-24T03:10:47;12.53;;;11.20;;
15132;SDS011;7667;51.232;17.110;2023-04-24T03:13:16;12.87;;;11.50;;
15132;SDS011;7667;51.232;17.110;2023-04-24T03:15:43;12.73;;;11.37;;
15132;SDS011;7667;51.232;17.110;2023-04-24T03:18:13;12.70;;;11.33;;
15132;SDS011;7667;51.232;17.110;2023-04-24T03:20:40;12.63;;;11.37;;
15132;SDS011;7667;51.232;17.110;2023-04-24T03:23:08;12.97;;;11.57;;
15132;SDS011;7667;51.232;17.110;2023-04-24T03:25:36;13.30;;;11.40;;
15132;SDS011;7667;51.232;17.110;2023-04-24T03:28:04;13.20;;;11.33;;
15132;SDS011;7667;51.232;17.110;2023-04-24T03:30:32;12.83;;;11.43;;
15132;SDS011;7667;51.232;17.110;2023-04-24T03:32:59;12.17;;;10.87;;
15132;SDS011;7667;51.232;17.110;2023-04-24T03:35:27;14.33;;;11.57;;
15132;SDS011;7667;51.232;17.110;2023-04-24T03:37:55;13.17;;;11.10;;
15132;SDS011;7667;51.232;17.110;2023-04-24T03:40:22;13.30;;;11.27;;
15132;SDS011;7667;51.232;17.110;2023-04-24T03:42:50;13.43;;;10.80;;
15132;SDS011;7667;51.232;17.110;2023-04-24T03:45:17;13.00;;;11.10;;
15132;SDS011;7667;51.232;17.110;2023-04-24T03:47:45;11.63;;;10.43;;
15132;SDS011;7667;51.232;17.110;2023-04-24T03:50:13;13.03;;;11.53;;
15132;SDS011;7667;51.232;17.110;2023-04-24T03:52:40;12.77;;;11.10;;
15132;SDS011;7667;51.232;17.110;2023-04-24T03:55:08;12.90;;;11.70;;
15132;SDS011;7667;51.232;17.110;2023-04-24T03:57:40;12.13;;;10.80;;
15132;SDS011;7667;51.232;17.110;2023-04-24T04:00:08;12.40;;;11.13;;
15132;SDS011;7667;51.232;17.110;2023-04-24T04:02:36;12.17;;;10.90;;
15132;SDS011;7667;51.232;17.110;2023-04-24T04:05:04;12.10;;;10.77;;
15132;SDS011;7667;51.232;17.110;2023-04-24T04:07:32;12.97;;;11.47;;
15132;SDS011;7667;51.232;17.110;2023-04-24T04:09:59;11.90;;;10.70;;
15132;SDS011;7667;51.232;17.110;2023-04-24T04:12:27;12.30;;;11.00;;
15132;SDS011;7667;51.232;17.110;2023-04-24T04:14:55;13.43;;;11.43;;
15132;SDS011;7667;51.232;17.110;2023-04-24T04:17:22;12.60;;;11.27;;
15132;SDS011;7667;51.232;17.110;2023-04-24T04:19:50;13.00;;;11.37;;
15132;SDS011;7667;51.232;17.110;2023-04-24T04:22:17;12.97;;;11.17;;
15132;SDS011;7667;51.232;17.110;2023-04-24T04:24:45;11.63;;;10.47;;
15132;SDS011;7667;51.232;17.110;2023-04-24T04:27:13;11.80;;;10.70;;
15132;SDS011;7667;51.232;17.110;2023-04-24T04:29:40;11.97;;;10.67;;
15132;SDS011;7667;51.232;17.110;2023-04-24T04:32:09;12.27;;;11.00;;
15132;SDS011;7667;51.232;17.110;2023-04-24T04:34:36;12.57;;;10.70;;
15132;SDS011;7667;51.232;17.110;2023-04-24T04:37:04;12.83;;;11.57;;
15132;SDS011;7667;51.232;17.110;2023-04-24T04:39:32;13.67;;;11.60;;
15132;SDS011;7667;51.232;17.110;2023-04-24T04:42:00;12.93;;;10.73;;
15132;SDS011;7667;51.232;17.110;2023-04-24T04:44:27;12.57;;;11.23;;
15132;SDS011;7667;51.232;17.110;2023-04-24T04:46:56;12.67;;;11.37;;
15132;SDS011;7667;51.232;17.110;2023-04-24T04:49:24;12.70;;;11.40;;
15132;SDS011;7667;51.232;17.110;2023-04-24T04:51:52;12.57;;;11.37;;
15132;SDS011;7667;51.232;17.110;2023-04-24T04:54:19;12.83;;;11.33;;
15132;SDS011;7667;51.232;17.110;2023-04-24T04:56:49;13.17;;;11.73;;
15132;SDS011;7667;51.232;17.110;2023-04-24T04:59:17;13.40;;;11.77;;
15132;SDS011;7667;51.232;17.110;2023-04-24T05:01:45;12.23;;;10.93;;
15132;SDS011;7667;51.232;17.110;2023-04-24T05:04:12;13.27;;;11.87;;
15132;SDS011;7667;51.232;17.110;2023-04-24T05:06:40;12.40;;;11.17;;
15132;SDS011;7667;51.232;17.110;2023-04-24T05:09:07;13.33;;;10.70;;
15132;SDS011;7667;51.232;17.110;2023-04-24T05:11:35;12.37;;;10.60;;
15132;SDS011;7667;51.232;17.110;2023-04-24T05:14:03;12.07;;;10.50;;
15132;SDS011;7667;51.232;17.110;2023-04-24T05:16:30;11.93;;;10.60;;
15132;SDS011;7667;51.232;17.110;2023-04-24T05:18:58;11.43;;;10.20;;
15132;SDS011;7667;51.232;17.110;2023-04-24T05:21:25;10.80;;;9.70;;
15132;SDS011;7667;51.232;17.110;2023-04-24T05:23:53;11.40;;;10.20;;
15132;SDS011;7667;51.232;17.110;2023-04-24T05:26:21;10.43;;;9.37;;
15132;SDS011;7667;51.232;17.110;2023-04-24T05:28:49;11.93;;;9.40;;
15132;SDS011;7667;51.232;17.110;2023-04-24T05:31:17;11.97;;;9.60;;
15132;SDS011;7667;51.232;17.110;2023-04-24T05:33:44;9.97;;;8.90;;
15132;SDS011;7667;51.232;17.110;2023-04-24T05:36:12;9.90;;;8.87;;
15132;SDS011;7667;51.232;17.110;2023-04-24T05:38:40;9.70;;;8.70;;
15132;SDS011;7667;51.232;17.110;2023-04-24T05:41:07;10.27;;;9.23;;
15132;SDS011;7667;51.232;17.110;2023-04-24T05:43:35;9.90;;;8.87;;
15132;SDS011;7667;51.232;17.110;2023-04-24T05:46:02;10.20;;;9.17;;
15132;SDS011;7667;51.232;17.110;2023-04-24T05:48:30;10.97;;;9.00;;
15132;SDS011;7667;51.232;17.110;2023-04-24T05:50:58;9.50;;;8.50;;
15132;SDS011;7667;51.232;17.110;2023-04-24T05:53:26;11.47;;;8.63;;
15132;SDS011;7667;51.232;17.110;2023-04-24T05:55:53;9.80;;;8.13;;
15132;SDS011;7667;51.232;17.110;2023-04-24T05:58:21;9.77;;;8.37;;
15132;SDS011;7667;51.232;17.110;2023-04-24T06:00:49;9.33;;;8.43;;
15132;SDS011;7667;51.232;17.110;2023-04-24T06:03:16;8.80;;;7.87;;
15132;SDS011;7667;51.232;17.110;2023-04-24T06:05:44;9.33;;;8.30;;
15132;SDS011;7667;51.232;17.110;2023-04-24T06:08:12;8.87;;;7.97;;
15132;SDS011;7667;51.232;17.110;2023-04-24T06:10:40;9.23;;;8.10;;
15132;SDS011;7667;51.232;17.110;2023-04-24T06:13:07;10.03;;;8.40;;
15132;SDS011;7667;51.232;17.110;2023-04-24T06:15:35;8.83;;;8.03;;
15132;SDS011;7667;51.232;17.110;2023-04-24T06:18:03;9.67;;;8.50;;
15132;SDS011;7667;51.232;17.110;2023-04-24T06:20:31;9.27;;;8.23;;
15132;SDS011;7667;51.232;17.110;2023-04-24T06:22:58;10.13;;;8.30;;
15132;SDS011;7667;51.232;17.110;2023-04-24T06:25:26;8.70;;;7.90;;
15132;SDS011;7667;51.232;17.110;2023-04-24T06:27:55;9.53;;;7.77;;
15132;SDS011;7667;51.232;17.110;2023-04-24T06:30:23;9.00;;;7.63;;
15132;SDS011;7667;51.232;17.110;2023-04-24T06:32:51;8.17;;;7.37;;
15132;SDS011;7667;51.232;17.110;2023-04-24T06:35:22;8.93;;;7.10;;
15132;SDS011;7667;51.232;17.110;2023-04-24T06:37:50;9.00;;;6.83;;
15132;SDS011;7667;51.232;17.110;2023-04-24T06:40:18;7.93;;;6.27;;
15132;SDS011;7667;51.232;17.110;2023-04-24T06:42:45;6.80;;;6.00;;
15132;SDS011;7667;51.232;17.110;2023-04-24T06:45:13;8.40;;;6.37;;
15132;SDS011;7667;51.232;17.110;2023-04-24T06:47:41;7.03;;;5.90;;
15132;SDS011;7667;51.232;17.110;2023-04-24T06:50:09;6.70;;;6.00;;
15132;SDS011;7667;51.232;17.110;2023-04-24T06:52:38;6.40;;;5.57;;
15132;SDS011;7667;51.232;17.110;2023-04-24T06:55:05;6.47;;;5.70;;
15132;SDS011;7667;51.232;17.110;2023-04-24T06:57:34;7.27;;;5.70;;
15132;SDS011;7667;51.232;17.110;2023-04-24T07:00:02;6.10;;;5.50;;
15132;SDS011;7667;51.232;17.110;2023-04-24T07:02:31;6.50;;;5.90;;
15132;SDS011;7667;51.232;17.110;2023-04-24T07:04:59;7.90;;;5.70;;
15132;SDS011;7667;51.232;17.110;2023-04-24T07:07:27;6.40;;;5.80;;
15132;SDS011;7667;51.232;17.110;2023-04-24T07:09:56;7.47;;;6.00;;
15132;SDS011;7667;51.232;17.110;2023-04-24T07:12:24;6.37;;;5.77;;
15132;SDS011;7667;51.232;17.110;2023-04-24T07:14:51;6.50;;;5.90;;
15132;SDS011;7667;51.232;17.110;2023-04-24T07:17:19;7.20;;;5.90;;
15132;SDS011;7667;51.232;17.110;2023-04-24T07:19:47;7.23;;;5.80;;
15132;SDS011;7667;51.232;17.110;2023-04-24T07:22:14;7.10;;;5.90;;
15132;SDS011;7667;51.232;17.110;2023-04-24T07:24:44;6.03;;;5.43;;
15132;SDS011;7667;51.232;17.110;2023-04-24T07:27:12;6.30;;;5.17;;
15132;SDS011;7667;51.232;17.110;2023-04-24T07:29:41;6.67;;;5.20;;
15132;SDS011;7667;51.232;17.110;2023-04-24T07:32:10;7.60;;;5.63;;
15132;SDS011;7667;51.232;17.110;2023-04-24T07:34:38;7.00;;;5.03;;
15132;SDS011;7667;51.232;17.110;2023-04-24T07:37:06;7.47;;;5.00;;
15132;SDS011;7667;51.232;17.110;2023-04-24T07:39:33;8.40;;;5.57;;
15132;SDS011;7667;51.232;17.110;2023-04-24T07:42:01;7.63;;;4.80;;
15132;SDS011;7667;51.232;17.110;2023-04-24T07:44:28;6.13;;;4.80;;
15132;SDS011;7667;51.232;17.110;2023-04-24T07:46:56;6.30;;;4.73;;
15132;SDS011;7667;51.232;17.110;2023-04-24T07:49:24;5.50;;;4.57;;
15132;SDS011;7667;51.232;17.110;2023-04-24T07:51:52;6.57;;;4.37;;
15132;SDS011;7667;51.232;17.110;2023-04-24T07:54:19;5.70;;;4.63;;
15132;SDS011;7667;51.232;17.110;2023-04-24T07:56:47;5.33;;;4.37;;
15132;SDS011;7667;51.232;17.110;2023-04-24T07:59:16;4.60;;;3.87;;
15132;SDS011;7667;51.232;17.110;2023-04-24T08:01:44;5.37;;;3.90;;
15132;SDS011;7667;51.232;17.110;2023-04-24T08:04:11;4.20;;;3.80;;
15132;SDS011;7667;51.232;17.110;2023-04-24T08:06:39;6.53;;;3.57;;
15132;SDS011;7667;51.232;17.110;2023-04-24T08:09:07;5.30;;;3.87;;
15132;SDS011;7667;51.232;17.110;2023-04-24T08:11:35;4.83;;;4.30;;
15132;SDS011;7667;51.232;17.110;2023-04-24T08:14:02;4.70;;;4.17;;
15132;SDS011;7667;51.232;17.110;2023-04-24T08:16:30;4.27;;;3.83;;
15132;SDS011;7667;51.232;17.110;2023-04-24T08:18:59;4.20;;;3.70;;
15132;SDS011;7667;51.232;17.110;2023-04-24T08:21:27;4.27;;;3.33;;
15132;SDS011;7667;51.232;17.110;2023-04-24T08:23:54;4.93;;;3.60;;
15132;SDS011;7667;51.232;17.110;2023-04-24T08:26:22;4.23;;;3.67;;
15132;SDS011;7667;51.232;17.110;2023-04-24T08:28:50;3.97;;;3.60;;
15132;SDS011;7667;51.232;17.110;2023-04-24T08:31:18;5.07;;;3.70;;
15132;SDS011;7667;51.232;17.110;2023-04-24T08:33:45;4.30;;;3.20;;
15132;SDS011;7667;51.232;17.110;2023-04-24T08:36:14;4.40;;;3.17;;
15132;SDS011;7667;51.232;17.110;2023-04-24T08:38:42;3.60;;;3.30;;
15132;SDS011;7667;51.232;17.110;2023-04-24T08:41:11;5.93;;;3.20;;
15132;SDS011;7667;51.232;17.110;2023-04-24T08:43:41;3.73;;;3.40;;
15132;SDS011;7667;51.232;17.110;2023-04-24T08:46:09;4.73;;;4.33;;
15132;SDS011;7667;51.232;17.110;2023-04-24T08:48:40;5.70;;;4.30;;
15132;SDS011;7667;51.232;17.110;2023-04-24T08:51:08;4.30;;;3.90;;
15132;SDS011;7667;51.232;17.110;2023-04-24T08:53:36;4.23;;;3.83;;
15132;SDS011;7667;51.232;17.110;2023-04-24T08:56:04;4.50;;;4.10;;
15132;SDS011;7667;51.232;17.110;2023-04-24T08:58:33;5.40;;;4.40;;
15132;SDS011;7667;51.232;17.110;2023-04-24T09:01:02;4.63;;;4.07;;
15132;SDS011;7667;51.232;17.110;2023-04-24T09:03:31;5.63;;;4.97;;
15132;SDS011;7667;51.232;17.110;2023-04-24T09:06:00;5.40;;;4.70;;
15132;SDS011;7667;51.232;17.110;2023-04-24T09:08:29;4.90;;;4.43;;
15132;SDS011;7667;51.232;17.110;2023-04-24T09:10:57;5.00;;;4.17;;
15132;SDS011;7667;51.232;17.110;2023-04-24T09:13:26;4.40;;;4.00;;
15132;SDS011;7667;51.232;17.110;2023-04-24T09:15:54;4.40;;;2.83;;
15132;SDS011;7667;51.232;17.110;2023-04-24T09:18:24;4.50;;;3.17;;
15132;SDS011;7667;51.232;17.110;2023-04-24T09:20:56;4.10;;;3.10;;
15132;SDS011;7667;51.232;17.110;2023-04-24T09:23:34;3.67;;;3.30;;
15132;SDS011;7667;51.232;17.110;2023-04-24T09:26:02;4.90;;;3.40;;
15132;SDS011;7667;51.232;17.110;2023-04-24T09:28:35;4.67;;;2.80;;
15132;SDS011;7667;51.232;17.110;2023-04-24T09:33:39;4.37;;;3.00;;
15132;SDS011;7667;51.232;17.110;2023-04-24T09:36:07;3.40;;;3.10;;
15132;SDS011;7667;51.232;17.110;2023-04-24T09:38:36;2.70;;;2.40;;
15132;SDS011;7667;51.232;17.110;2023-04-24T09:41:06;3.03;;;2.50;;
15132;SDS011;7667;51.232;17.110;2023-04-24T09:43:35;2.77;;;2.33;;
15132;SDS011;7667;51.232;17.110;2023-04-24T09:46:06;3.40;;;2.40;;
15132;SDS011;7667;51.232;17.110;2023-04-24T09:48:36;2.83;;;2.40;;
15132;SDS011;7667;51.232;17.110;2023-04-24T09:51:05;3.73;;;2.93;;
15132;SDS011;7667;51.232;17.110;2023-04-24T09:53:37;3.33;;;2.90;;
15132;SDS011;7667;51.232;17.110;2023-04-24T09:56:09;4.77;;;3.30;;
15132;SDS011;7667;51.232;17.110;2023-04-24T09:58:39;3.47;;;2.90;;
15132;SDS011;7667;51.232;17.110;2023-04-24T10:01:07;4.23;;;3.10;;
15132;SDS011;7667;51.232;17.110;2023-04-24T10:03:36;3.47;;;3.00;;
15132;SDS011;7667;51.232;17.110;2023-04-24T10:06:03;4.23;;;3.00;;
15132;SDS011;7667;51.232;17.110;2023-04-24T10:08:36;3.47;;;3.07;;
15132;SDS011;7667;51.232;17.110;2023-04-24T10:11:04;4.20;;;3.10;;
15132;SDS011;7667;51.232;17.110;2023-04-24T10:13:32;4.43;;;3.20;;
15132;SDS011;7667;51.232;17.110;2023-04-24T10:16:02;4.20;;;3.00;;
15132;SDS011;7667;51.232;17.110;2023-04-24T10:18:31;2.97;;;2.77;;
15132;SDS011;7667;51.232;17.110;2023-04-24T10:21:00;4.10;;;3.10;;
15132;SDS011;7667;51.232;17.110;2023-04-24T10:23:29;3.47;;;2.97;;
15132;SDS011;7667;51.232;17.110;2023-04-24T10:25:57;3.83;;;3.40;;
15132;SDS011;7667;51.232;17.110;2023-04-24T10:28:27;3.97;;;3.43;;
15132;SDS011;7667;51.232;17.110;2023-04-24T10:30:56;3.60;;;3.30;;
15132;SDS011;7667;51.232;17.110;2023-04-24T10:33:25;4.10;;;3.37;;
15132;SDS011;7667;51.232;17.110;2023-04-24T10:35:53;4.60;;;3.43;;
15132;SDS011;7667;51.232;17.110;2023-04-24T10:38:22;4.93;;;3.83;;
15132;SDS011;7667;51.232;17.110;2023-04-24T10:41:10;4.00;;;3.60;;
15132;SDS011;7667;51.232;17.110;2023-04-24T10:46:39;4.77;;;3.53;;
15132;SDS011;7667;51.232;17.110;2023-04-24T10:49:13;4.50;;;3.90;;
15132;SDS011;7667;51.232;17.110;2023-04-24T10:51:47;4.67;;;4.27;;
15132;SDS011;7667;51.232;17.110;2023-04-24T10:54:33;5.17;;;3.77;;
15132;SDS011;7667;51.232;17.110;2023-04-24T10:59:49;4.37;;;3.93;;
15132;SDS011;7667;51.232;17.110;2023-04-24T11:02:39;4.23;;;3.20;;
15132;SDS011;7667;51.232;17.110;2023-04-24T11:05:16;4.63;;;3.03;;
15132;SDS011;7667;51.232;17.110;2023-04-24T11:10:44;3.80;;;3.40;;
15132;SDS011;7667;51.232;17.110;2023-04-24T11:13:16;5.27;;;3.40;;
15132;SDS011;7667;51.232;17.110;2023-04-24T11:19:39;3.90;;;3.23;;
15132;SDS011;7667;51.232;17.110;2023-04-24T11:22:02;3.70;;;3.20;;
15132;SDS011;7667;51.232;17.110;2023-04-24T11:35:05;5.60;;;3.50;;
15132;SDS011;7667;51.232;17.110;2023-04-24T11:37:39;3.90;;;3.50;;
15132;SDS011;7667;51.232;17.110;2023-04-24T11:40:10;6.17;;;3.80;;
15132;SDS011;7667;51.232;17.110;2023-04-24T11:42:43;6.00;;;3.77;;
15132;SDS011;7667;51.232;17.110;2023-04-24T11:45:15;4.07;;;3.40;;
15132;SDS011;7667;51.232;17.110;2023-04-24T11:47:44;5.20;;;3.90;;
15132;SDS011;7667;51.232;17.110;2023-04-24T11:50:16;4.77;;;3.87;;
15132;SDS011;7667;51.232;17.110;2023-04-24T11:52:46;5.40;;;3.90;;
15132;SDS011;7667;51.232;17.110;2023-04-24T11:57:45;3.97;;;3.57;;
15132;SDS011;7667;51.232;17.110;2023-04-24T12:02:47;4.97;;;3.70;;
15132;SDS011;7667;51.232;17.110;2023-04-24T12:07:53;4.00;;;3.00;;
15132;SDS011;7667;51.232;17.110;2023-04-24T12:10:22;7.37;;;3.03;;
15132;SDS011;7667;51.232;17.110;2023-04-24T12:12:55;3.23;;;2.90;;
15132;SDS011;7667;51.232;17.110;2023-04-24T12:15:25;3.30;;;3.00;;
15132;SDS011;7667;51.232;17.110;2023-04-24T12:17:53;2.70;;;2.50;;
15132;SDS011;7667;51.232;17.110;2023-04-24T12:20:30;3.87;;;2.70;;
15132;SDS011;7667;51.232;17.110;2023-04-24T12:23:00;33.77;;;23.50;;
15132;SDS011;7667;51.232;17.110;2023-04-24T12:25:29;34.77;;;20.07;;
15132;SDS011;7667;51.232;17.110;2023-04-24T12:30:39;23.07;;;14.33;;
15132;SDS011;7667;51.232;17.110;2023-04-24T12:33:12;28.57;;;13.50;;
15132;SDS011;7667;51.232;17.110;2023-04-24T12:35:40;4.47;;;3.47;;
15132;SDS011;7667;51.232;17.110;2023-04-24T12:38:12;4.23;;;3.47;;
15132;SDS011;7667;51.232;17.110;2023-04-24T12:40:41;7.00;;;3.30;;
15132;SDS011;7667;51.232;17.110;2023-04-24T12:43:19;3.27;;;2.73;;
15132;SDS011;7667;51.232;17.110;2023-04-24T12:45:47;5.57;;;3.30;;
15132;SDS011;7667;51.232;17.110;2023-04-24T12:48:15;4.03;;;3.63;;
15132;SDS011;7667;51.232;17.110;2023-04-24T12:50:43;3.60;;;3.30;;
15132;SDS011;7667;51.232;17.110;2023-04-24T12:53:13;3.93;;;2.83;;
15132;SDS011;7667;51.232;17.110;2023-04-24T12:55:41;3.37;;;2.90;;
15132;SDS011;7667;51.232;17.110;2023-04-24T12:58:10;3.83;;;3.40;;
15132;SDS011;7667;51.232;17.110;2023-04-24T13:00:38;4.33;;;3.93;;
15132;SDS011;7667;51.232;17.110;2023-04-24T13:03:06;7.47;;;6.27;;
15132;SDS011;7667;51.232;17.110;2023-04-24T13:05:34;7.10;;;6.40;;
15132;SDS011;7667;51.232;17.110;2023-04-24T13:08:02;7.50;;;6.80;;
15132;SDS011;7667;51.232;17.110;2023-04-24T13:10:29;7.67;;;6.83;;
15132;SDS011;7667;51.232;17.110;2023-04-24T13:12:57;8.00;;;7.17;;
15132;SDS011;7667;51.232;17.110;2023-04-24T13:15:25;6.20;;;5.60;;
15132;SDS011;7667;51.232;17.110;2023-04-24T13:17:52;7.17;;;5.27;;
15132;SDS011;7667;51.232;17.110;2023-04-24T13:20:20;5.00;;;4.50;;
15132;SDS011;7667;51.232;17.110;2023-04-24T13:22:48;4.17;;;3.77;;
15132;SDS011;7667;51.232;17.110;2023-04-24T13:25:16;4.57;;;4.00;;
15132;SDS011;7667;51.232;17.110;2023-04-24T13:27:45;3.20;;;2.70;;
15132;SDS011;7667;51.232;17.110;2023-04-24T13:30:13;2.80;;;2.30;;
15132;SDS011;7667;51.232;17.110;2023-04-24T13:32:41;2.60;;;2.40;;
15132;SDS011;7667;51.232;17.110;2023-04-24T13:35:08;2.33;;;2.00;;
15132;SDS011;7667;51.232;17.110;2023-04-24T13:37:36;2.93;;;2.17;;
15132;SDS011;7667;51.232;17.110;2023-04-24T13:40:04;3.00;;;1.90;;
15132;SDS011;7667;51.232;17.110;2023-04-24T13:42:33;2.50;;;1.63;;
15132;SDS011;7667;51.232;17.110;2023-04-24T13:45:03;2.00;;;1.70;;
15132;SDS011;7667;51.232;17.110;2023-04-24T13:47:50;2.80;;;1.80;;
15132;SDS011;7667;51.232;17.110;2023-04-24T13:50:18;1.90;;;1.80;;
15132;SDS011;7667;51.232;17.110;2023-04-24T13:52:47;4.10;;;1.80;;
15132;SDS011;7667;51.232;17.110;2023-04-24T13:55:14;1.60;;;1.50;;
15132;SDS011;7667;51.232;17.110;2023-04-24T13:57:42;2.43;;;1.50;;
15132;SDS011;7667;51.232;17.110;2023-04-24T14:00:10;1.93;;;1.53;;
15132;SDS011;7667;51.232;17.110;2023-04-24T14:02:38;1.63;;;1.30;;
15132;SDS011;7667;51.232;17.110;2023-04-24T14:05:06;2.40;;;1.70;;
15132;SDS011;7667;51.232;17.110;2023-04-24T14:07:34;1.70;;;1.60;;
15132;SDS011;7667;51.232;17.110;2023-04-24T14:10:02;2.80;;;1.50;;
15132;SDS011;7667;51.232;17.110;2023-04-24T14:12:30;1.63;;;1.40;;
15132;SDS011;7667;51.232;17.110;2023-04-24T14:14:58;2.60;;;1.40;;
15132;SDS011;7667;51.232;17.110;2023-04-24T14:17:26;1.70;;;1.50;;
15132;SDS011;7667;51.232;17.110;2023-04-24T14:19:53;1.70;;;1.60;;
15132;SDS011;7667;51.232;17.110;2023-04-24T14:22:23;1.67;;;1.53;;
15132;SDS011;7667;51.232;17.110;2023-04-24T14:24:50;2.17;;;1.40;;
15132;SDS011;7667;51.232;17.110;2023-04-24T14:27:18;1.93;;;1.53;;
15132;SDS011;7667;51.232;17.110;2023-04-24T14:29:53;3.03;;;1.50;;
15132;SDS011;7667;51.232;17.110;2023-04-24T14:32:29;3.50;;;1.73;;
15132;SDS011;7667;51.232;17.110;2023-04-24T14:34:57;3.43;;;2.07;;
15132;SDS011;7667;51.232;17.110;2023-04-24T14:37:24;3.77;;;1.80;;
15132;SDS011;7667;51.232;17.110;2023-04-24T14:39:52;3.23;;;2.40;;
15132;SDS011;7667;51.232;17.110;2023-04-24T14:42:40;2.87;;;2.60;;
15132;SDS011;7667;51.232;17.110;2023-04-24T14:45:07;2.47;;;1.80;;
15132;SDS011;7667;51.232;17.110;2023-04-24T14:47:36;2.23;;;1.70;;
15132;SDS011;7667;51.232;17.110;2023-04-24T14:50:04;4.30;;;2.20;;
15132;SDS011;7667;51.232;17.110;2023-04-24T14:52:34;3.30;;;3.00;;
15132;SDS011;7667;51.232;17.110;2023-04-24T14:55:02;3.77;;;2.70;;
15132;SDS011;7667;51.232;17.110;2023-04-24T14:57:31;3.80;;;2.37;;
15132;SDS011;7667;51.232;17.110;2023-04-24T14:59:58;6.30;;;2.60;;
15132;SDS011;7667;51.232;17.110;2023-04-24T15:02:26;2.53;;;2.23;;
15132;SDS011;7667;51.232;17.110;2023-04-24T15:04:54;3.70;;;3.00;;
15132;SDS011;7667;51.232;17.110;2023-04-24T15:07:23;5.70;;;3.67;;
15132;SDS011;7667;51.232;17.110;2023-04-24T15:09:52;5.70;;;4.20;;
15132;SDS011;7667;51.232;17.110;2023-04-24T15:12:20;7.90;;;4.53;;
15132;SDS011;7667;51.232;17.110;2023-04-24T15:14:49;3.10;;;2.60;;
15132;SDS011;7667;51.232;17.110;2023-04-24T15:17:16;2.90;;;2.60;;
15132;SDS011;7667;51.232;17.110;2023-04-24T15:19:44;3.23;;;2.87;;
15132;SDS011;7667;51.232;17.110;2023-04-24T15:22:12;4.07;;;3.00;;